Time;durP1;ratioP1;P1;durP2;ratioP2;P2;SDS_P1;SDS_P2;PMS_P1;PMS_P2;Temp;Humidity;BMP_temperature;BMP_pressure;BME280_temperature;BME280_humidity;BME280_pressure;Samples;Min_cycle;Max_cycle;Signal;HPM_P1;HPM_P2
2022/07/29 00:00:38;;;;;;;4.28;1.30;;;18.60;99.90;;;-144.05;41.52;125687.94;4947264;29;20039;-89
2022/07/29 00:03:14;;;;;;;4.68;1.65;;;18.60;99.90;;;-144.05;41.86;125687.94;4964971;29;20032;-91
2022/07/29 00:05:44;;;;;;;8.90;1.70;;;18.50;99.90;;;-144.05;41.83;125687.94;4963218;28;20034;-88
2022/07/29 00:08:17;;;;;;;6.55;1.90;;;18.50;99.90;;;-144.05;41.69;125687.94;4963971;29;20037;-89
2022/07/29 00:10:48;;;;;;;6.32;1.80;;;18.50;99.90;;;-144.05;41.81;125687.94;4949447;29;20469;-87
2022/07/29 00:13:17;;;;;;;4.22;1.80;;;18.50;99.90;;;-144.05;41.77;125687.94;4972994;28;20031;-88
2022/07/29 00:15:44;;;;;;;5.75;1.42;;;18.40;99.90;;;-144.05;41.85;125687.94;4966116;28;20050;-87
2022/07/29 00:18:13;;;;;;;4.97;1.50;;;18.50;99.90;;;-144.05;42.08;125687.94;4981540;28;20126;-86
2022/07/29 00:20:44;;;;;;;9.30;2.13;;;18.40;99.90;;;-144.05;41.88;125687.94;4979844;28;20465;-90
2022/07/29 00:23:10;;;;;;;6.93;1.20;;;18.50;99.90;;;-144.05;41.78;125687.94;4963081;29;20037;-90
2022/07/29 00:25:41;;;;;;;4.18;1.50;;;18.50;99.90;;;-144.05;41.89;125687.94;4963155;28;20027;-90
2022/07/29 00:28:17;;;;;;;5.53;2.03;;;18.40;99.90;;;-144.05;42.10;125687.94;4982307;28;20034;-88
2022/07/29 00:30:49;;;;;;;5.22;1.83;;;18.40;99.90;;;-144.05;42.08;125687.94;4983048;28;20034;-88
2022/07/29 00:33:18;;;;;;;4.70;2.00;;;18.30;99.90;;;-144.05;42.21;125687.94;4984309;28;20035;-90
2022/07/29 00:35:44;;;;;;;6.65;1.95;;;18.30;99.90;;;-144.05;42.21;125687.94;4968461;28;20038;-91
2022/07/29 00:38:30;;;;;;;;;;;;;;;;;;;;;
2022/07/29 00:40:57;;;;;;;;;;;18.20;99.90;;;-144.05;42.28;125687.94;4968426;29;20059;-91
2022/07/29 00:43:23;;;;;;;4.95;1.58;;;18.20;99.90;;;-144.05;42.44;125687.94;4965815;28;19922;-88
2022/07/29 00:45:49;;;;;;;5.60;1.50;;;18.10;99.90;;;-144.05;42.57;125687.94;4980353;28;20031;-89
2022/07/29 00:48:20;;;;;;;5.32;1.75;;;18.20;99.90;;;-144.05;42.58;125687.94;4975934;28;20032;-89
2022/07/29 00:50:52;;;;;;;8.98;2.00;;;18.10;99.90;;;-144.05;42.75;125687.94;4972371;28;20024;-88
2022/07/29 00:53:21;;;;;;;5.18;1.85;;;18.00;99.90;;;-144.05;42.85;125687.94;4973823;28;20038;-87
2022/07/29 00:55:48;;;;;;;4.18;1.80;;;18.00;99.90;;;-144.05;42.83;125687.94;4974535;28;20543;-88
2022/07/29 00:58:17;;;;;;;4.78;1.33;;;18.00;99.90;;;-144.05;42.83;125687.94;4975131;28;20037;-91
2022/07/29 01:00:46;;;;;;;6.75;1.60;;;18.00;99.90;;;-144.05;42.91;125687.94;4973073;28;20050;-88
2022/07/29 01:06:34;;;;;;;5.75;1.52;;;18.00;99.90;;;-144.05;43.06;125687.94;5063790;23;20055;-87
2022/07/29 01:09:09;;;;;;;2.97;1.38;;;17.90;99.90;;;-144.05;43.31;125687.94;4944543;29;20105;-89
2022/07/29 01:11:37;;;;;;;4.10;1.30;;;17.80;99.90;;;-144.05;43.44;125687.94;4960866;29;20030;-87
2022/07/29 01:14:09;;;;;;;3.50;1.25;;;17.80;99.90;;;-144.05;43.54;125687.94;4958593;29;20035;-89
2022/07/29 01:17:01;;;;;;;5.60;1.88;;;17.70;99.90;;;-144.05;43.94;125687.94;4957964;29;20049;-88
2022/07/29 01:20:13;;;;;;;4.97;1.58;;;17.60;99.90;;;-144.05;44.19;125687.94;4957538;29;20379;-85
2022/07/29 01:23:09;;;;;;;3.55;1.42;;;17.60;99.90;;;-144.05;44.50;125687.94;4954461;29;20060;-87
2022/07/29 01:25:52;;;;;;;3.25;1.50;;;17.50;99.90;;;-144.05;44.75;125687.94;4966941;29;20032;-88
2022/07/29 01:29:02;;;;;;;8.82;2.00;;;17.40;99.90;;;-144.05;44.68;125687.94;4964006;29;20529;-89
2022/07/29 01:32:28;;;;;;;4.10;1.52;;;17.40;99.90;;;-144.05;44.73;125687.94;4944127;29;20500;-88
2022/07/29 01:35:06;;;;;;;2.83;1.30;;;17.40;99.90;;;-144.05;44.89;125687.94;4887785;29;20144;-93
2022/07/29 01:38:28;;;;;;;4.55;1.58;;;17.30;99.90;;;-144.05;45.00;125687.94;4955430;28;20375;-89
2022/07/29 01:41:11;;;;;;;11.23;1.58;;;17.40;99.90;;;-144.05;45.22;125687.94;4946285;29;20020;-89
2022/07/29 01:43:53;;;;;;;7.72;1.70;;;17.40;99.90;;;-144.05;45.09;125687.94;4959245;29;20066;-91
2022/07/29 01:46:38;;;;;;;7.10;1.67;;;17.40;99.90;;;-144.05;45.13;125687.94;4961276;29;20028;-87
2022/07/29 01:49:39;;;;;;;5.95;1.42;;;17.40;99.90;;;-144.05;45.15;125687.94;4961388;29;20038;-88
2022/07/29 01:52:20;;;;;;;7.85;1.98;;;17.40;99.90;;;-144.05;45.17;125687.94;4961728;29;20039;-88
2022/07/29 01:55:07;;;;;;;4.07;1.60;;;17.40;99.90;;;-144.05;45.12;125687.94;4945161;29;20031;-87
2022/07/29 01:57:40;;;;;;;7.15;1.98;;;17.40;99.90;;;-144.05;45.24;125687.94;4960356;29;20032;-89
2022/07/29 02:00:08;;;;;;;4.78;1.67;;;17.40;99.90;;;-144.05;45.39;125687.94;4962995;29;20050;-88
2022/07/29 02:02:41;;;;;;;3.63;1.48;;;17.30;99.90;;;-144.05;45.48;125687.94;4962498;29;20063;-89
2022/07/29 02:05:18;;;;;;;3.05;1.38;;;17.30;99.90;;;-144.05;45.47;125687.94;4962571;29;20035;-87
2022/07/29 02:07:50;;;;;;;5.40;1.50;;;17.30;99.90;;;-144.05;45.39;125687.94;4959959;29;20099;-88
2022/07/29 02:10:26;;;;;;;4.95;1.55;;;17.30;99.90;;;-144.05;45.85;125687.94;4957806;29;20028;-87
2022/07/29 02:12:57;;;;;;;5.50;1.40;;;17.20;99.90;;;-144.05;45.85;125687.94;4965421;28;20077;-89
2022/07/29 02:15:28;;;;;;;5.38;1.30;;;17.20;99.90;;;-144.05;46.08;125687.94;4959554;29;20028;-86
2022/07/29 02:18:22;;;;;;;3.42;1.58;;;17.10;99.90;;;-144.05;45.93;125687.94;4959033;29;20070;-86
2022/07/29 02:20:56;;;;;;;3.70;1.90;;;17.20;99.90;;;-144.05;46.10;125687.94;4959692;29;20481;-85
2022/07/29 02:23:25;;;;;;;6.00;1.58;;;17.10;99.90;;;-144.05;46.16;125687.94;4961055;28;20066;-90
2022/07/29 02:25:59;;;;;;;2.17;1.23;;;17.10;99.90;;;-144.05;46.30;125687.94;4958047;29;20031;-85
2022/07/29 02:28:30;;;;;;;9.52;1.83;;;17.10;99.90;;;-144.05;46.32;125687.94;4958238;29;20027;-87
2022/07/29 02:31:02;;;;;;;7.35;1.30;;;17.10;99.90;;;-144.05;46.38;125687.94;4958434;29;20055;-89
2022/07/29 02:33:32;;;;;;;6.72;1.70;;;17.10;99.90;;;-144.05;46.43;125687.94;4974290;28;20028;-87
2022/07/29 02:36:01;;;;;;;4.80;1.70;;;17.10;99.90;;;-144.05;46.56;125687.94;4958117;29;20031;-88
2022/07/29 02:38:50;;;;;;;6.80;1.60;;;17.10;99.90;;;-144.05;46.69;125687.94;4958073;29;20042;-87
2022/07/29 02:41:33;;;;;;;6.60;1.60;;;17.10;99.90;;;-144.05;46.69;125687.94;4957978;29;20070;-85
2022/07/29 02:44:10;;;;;;;6.28;1.85;;;17.10;99.90;;;-144.05;46.70;125687.94;4958184;29;20487;-87
2022/07/29 02:46:45;;;;;;;9.15;1.63;;;17.10;99.90;;;-144.05;46.64;125687.94;4959441;28;20180;-90
2022/07/29 02:49:27;;;;;;;5.30;1.50;;;17.00;99.90;;;-144.05;47.07;125687.94;4957514;28;20057;-88
2022/07/29 02:52:02;;;;;;;3.75;1.33;;;17.00;99.90;;;-144.05;47.48;125687.94;4974095;28;20050;-86
2022/07/29 02:54:46;;;;;;;6.18;1.60;;;17.00;99.90;;;-144.05;47.22;125687.94;4958305;29;20122;-87
2022/07/29 02:57:31;;;;;;;6.90;1.70;;;16.90;99.90;;;-144.05;47.43;125687.94;4958140;29;20038;-90
2022/07/29 03:00:07;;;;;;;6.22;1.92;;;16.90;99.90;;;-144.05;47.44;125687.94;4973624;28;20038;-90
2022/07/29 03:02:44;;;;;;;4.32;1.95;;;16.90;99.90;;;-144.05;47.62;125687.94;4958161;29;20450;-89
2022/07/29 03:05:19;;;;;;;7.43;1.33;;;16.80;99.90;;;-144.05;47.67;125687.94;4958452;29;20031;-88
2022/07/29 03:07:55;;;;;;;5.72;1.77;;;16.80;99.90;;;-144.05;47.73;125687.94;4959406;28;20489;-88
2022/07/29 03:10:23;;;;;;;4.47;1.40;;;16.80;99.90;;;-144.05;47.60;125687.94;4958495;29;20054;-88
2022/07/29 03:12:50;;;;;;;6.10;1.25;;;16.80;99.90;;;-144.05;47.74;125687.94;4959725;28;20034;-90
2022/07/29 03:15:18;;;;;;;4.47;1.15;;;16.90;99.90;;;-144.05;47.87;125687.94;4941960;29;20400;-86
2022/07/29 03:17:46;;;;;;;4.68;1.23;;;16.80;99.90;;;-144.05;47.98;125687.94;4943422;29;20126;-87
2022/07/29 03:20:13;;;;;;;5.88;1.67;;;16.80;99.90;;;-144.05;48.08;125687.94;4948230;28;20035;-87
2022/07/29 03:22:46;;;;;;;3.83;1.75;;;16.80;99.90;;;-144.05;48.08;125687.94;4941598;29;20038;-87
2022/07/29 03:25:18;;;;;;;6.20;1.45;;;16.80;99.90;;;-144.05;47.99;125687.94;4958504;29;20026;-88
2022/07/29 03:27:46;;;;;;;8.05;1.75;;;16.70;99.90;;;-144.05;48.11;125687.94;4958030;29;20027;-89
2022/07/29 03:30:14;;;;;;;9.52;1.80;;;16.80;99.90;;;-144.05;48.00;125687.94;4941193;29;20027;-88
2022/07/29 03:32:41;;;;;;;3.38;1.23;;;16.80;99.90;;;-144.05;48.07;125687.94;4941215;29;20027;-88
2022/07/29 03:35:08;;;;;;;9.75;2.15;;;16.90;99.90;;;-144.05;47.94;125687.94;4941472;29;20086;-87
2022/07/29 03:37:36;;;;;;;7.18;2.15;;;16.90;99.90;;;-144.05;48.19;125687.94;4941674;29;20500;-89
2022/07/29 03:40:11;;;;;;;4.93;1.88;;;16.80;99.90;;;-144.05;48.32;125687.94;4941512;29;20042;-88
2022/07/29 03:42:43;;;;;;;7.32;1.60;;;16.90;99.90;;;-144.05;48.30;125687.94;4942634;29;20031;-87
2022/07/29 03:45:17;;;;;;;9.32;1.65;;;16.80;99.90;;;-144.05;48.44;125687.94;4959896;29;20036;-86
2022/07/29 03:47:51;;;;;;;4.38;1.58;;;16.80;99.90;;;-144.05;48.58;125687.94;4958275;29;20270;-88
2022/07/29 03:50:21;;;;;;;6.40;1.73;;;16.70;99.90;;;-144.05;48.75;125687.94;4959241;29;20034;-87
2022/07/29 03:52:49;;;;;;;7.43;1.92;;;16.70;99.90;;;-144.05;48.76;125687.94;4950407;29;20118;-84
2022/07/29 03:55:16;;;;;;;5.82;1.45;;;16.70;99.90;;;-144.05;48.56;125687.94;4967239;28;20544;-89
2022/07/29 03:57:46;;;;;;;6.13;1.80;;;16.70;99.90;;;-144.05;48.70;125687.94;4959451;29;20060;-86
2022/07/29 04:00:15;;;;;;;7.28;1.45;;;16.80;99.90;;;-144.05;48.72;125687.94;4942719;29;20031;-89
2022/07/29 04:02:44;;;;;;;9.55;1.80;;;16.80;99.90;;;-144.05;48.77;125687.94;4943257;29;20485;-91
2022/07/29 04:07:48;;;;;;;5.28;1.67;;;16.80;99.90;;;-144.05;48.49;125687.94;4998852;28;20046;-87
2022/07/29 04:10:17;;;;;;;2.95;1.30;;;16.80;99.90;;;-144.05;48.53;125687.94;4984351;28;20041;-86
2022/07/29 04:12:43;;;;;;;6.28;1.70;;;16.80;99.90;;;-144.05;48.27;125687.94;5006335;28;20017;-88
2022/07/29 04:15:10;;;;;;;8.93;1.75;;;16.80;99.90;;;-144.05;48.15;125687.94;5011663;28;20026;-87
2022/07/29 04:17:36;;;;;;;7.63;1.65;;;16.90;99.90;;;-144.05;47.99;125687.94;4998354;28;20030;-90
2022/07/29 04:20:03;;;;;;;6.57;1.60;;;16.90;99.90;;;-144.05;48.04;125687.94;4997163;28;20041;-88
2022/07/29 04:22:29;;;;;;;5.45;1.80;;;16.90;99.90;;;-144.05;48.60;125687.94;4997240;28;20040;-85
2022/07/29 04:24:56;;;;;;;3.65;1.38;;;16.90;99.90;;;-144.05;48.70;125687.94;4997467;28;20095;-88
2022/07/29 04:27:22;;;;;;;5.28;1.45;;;17.00;99.90;;;-144.05;48.22;125687.94;4997441;28;20037;-86
2022/07/29 04:29:48;;;;;;;7.65;1.38;;;17.00;99.90;;;-144.05;48.53;125687.94;4997679;28;20022;-87
2022/07/29 04:32:14;;;;;;;5.03;1.40;;;16.90;99.90;;;-144.05;48.51;125687.94;4996681;28;20507;-87
2022/07/29 04:34:40;;;;;;;4.63;1.95;;;16.90;99.90;;;-144.05;48.96;125687.94;4996717;28;20022;-85
2022/07/29 04:37:06;;;;;;;3.83;1.42;;;16.80;99.90;;;-144.05;49.12;125687.94;4996401;28;20515;-87
2022/07/29 04:39:32;;;;;;;3.88;1.52;;;16.80;99.90;;;-144.05;49.21;125687.94;4996326;28;20022;-86
2022/07/29 04:41:58;;;;;;;5.47;1.90;;;16.80;99.90;;;-144.05;49.45;125687.94;4996776;28;20030;-88
2022/07/29 04:44:24;;;;;;;4.20;1.70;;;16.90;99.90;;;-144.05;49.52;125687.94;4996528;28;20069;-89
2022/07/29 04:46:50;;;;;;;4.38;1.83;;;16.80;99.90;;;-144.05;49.67;125687.94;4996322;28;20046;-88
2022/07/29 04:49:16;;;;;;;3.97;1.45;;;16.80;99.90;;;-144.05;49.98;125687.94;4997316;28;20093;-88
2022/07/29 04:51:42;;;;;;;4.45;1.83;;;16.70;99.90;;;-144.05;49.96;125687.94;4996672;28;20031;-88
2022/07/29 04:54:08;;;;;;;7.00;1.70;;;16.70;99.90;;;-144.05;49.93;125687.94;4997036;28;20030;-88
2022/07/29 04:56:34;;;;;;;9.32;2.00;;;16.70;99.90;;;-144.05;50.19;125687.94;4995775;28;20137;-87
2022/07/29 04:59:00;;;;;;;7.70;1.67;;;16.70;99.90;;;-144.05;50.11;125687.94;4995426;28;20030;-88
2022/07/29 05:01:29;;;;;;;5.32;1.40;;;16.70;99.90;;;-144.05;50.21;125687.94;4996315;28;20031;-86
2022/07/29 05:03:55;;;;;;;8.75;1.75;;;16.60;99.90;;;-144.05;50.67;125687.94;4977869;28;20042;-86
2022/07/29 05:06:21;;;;;;;5.00;1.55;;;16.60;99.90;;;-144.05;50.54;125687.94;4979101;28;20046;-89
2022/07/29 05:08:47;;;;;;;4.07;1.60;;;16.60;99.90;;;-144.05;50.43;125687.94;4996604;28;20427;-89
2022/07/29 05:11:13;;;;;;;6.20;1.60;;;16.60;99.90;;;-144.05;50.48;125687.94;4995685;28;20457;-87
2022/07/29 05:13:41;;;;;;;6.97;1.38;;;16.60;99.90;;;-144.05;50.72;125687.94;5003700;28;20056;-85
2022/07/29 05:16:28;;;;;;;3.97;1.30;;;16.60;99.90;;;-144.05;50.68;125687.94;5016273;28;20092;-87
2022/07/29 05:19:17;;;;;;;5.55;1.13;;;16.60;99.90;;;-144.05;51.20;125687.94;4993601;28;20096;-86
2022/07/29 05:21:47;;;;;;;4.00;1.33;;;16.70;99.90;;;-144.05;52.02;125687.94;4971085;28;20038;-89
2022/07/29 05:24:13;;;;;;;4.95;1.38;;;16.60;99.90;;;-144.05;52.63;125687.94;5004648;28;20141;-87
2022/07/29 05:26:40;;;;;;;5.28;1.50;;;16.60;99.90;;;-144.05;53.53;125687.94;5004848;28;20036;-87
2022/07/29 05:29:06;;;;;;;4.78;1.33;;;16.50;99.90;;;-144.05;55.20;125687.94;5003238;28;20034;-90
2022/07/29 05:31:33;;;;;;;7.50;1.77;;;16.40;99.90;;;-144.05;55.73;125687.94;5003681;28;20033;-85
2022/07/29 05:34:00;;;;;;;8.00;2.15;;;16.40;99.90;;;-144.05;57.00;125687.94;5003291;28;20026;-90
2022/07/29 05:36:31;;;;;;;3.05;1.80;;;16.30;99.90;;;-144.05;57.72;125687.94;5002906;28;20484;-86
2022/07/29 05:38:57;;;;;;;7.93;1.90;;;16.20;99.90;;;-144.05;58.16;125687.94;5001000;28;20046;-88
2022/07/29 05:45:59;;;;;;;7.88;2.08;;;16.10;99.90;;;-144.05;59.79;125687.94;4852953;29;20041;-90
2022/07/29 05:48:46;;;;;;;10.43;2.42;;;16.10;99.90;;;-144.05;60.65;125687.94;4859278;29;20050;-85
2022/07/29 06:13:38;;;;;;;7.10;1.50;;;17.10;99.90;;;-144.05;55.98;125687.94;4963459;29;20055;-90
2022/07/29 06:21:35;;;;;;;;;;;;;;;;;;;;;
2022/07/29 06:45:11;;;;;;;4.72;1.70;;;18.80;99.90;;;-144.05;45.24;125687.94;4978744;28;20065;-88
2022/07/29 06:48:28;;;;;;;4.28;1.45;;;19.50;99.90;;;-144.05;43.36;125687.94;4934701;28;20039;-88
2022/07/29 06:50:58;;;;;;;5.80;1.73;;;20.30;99.90;;;-144.05;41.47;125687.94;4965297;28;20034;-90
2022/07/29 06:53:26;;;;;;;5.70;1.80;;;20.80;99.90;;;-144.05;40.73;125687.94;4949474;28;20039;-89
2022/07/29 06:56:35;;;;;;;8.35;1.48;;;21.10;99.90;;;-144.05;40.06;125687.94;4949589;28;20038;-88
2022/07/29 06:59:34;;;;;;;5.70;1.35;;;21.40;99.90;;;-144.05;38.70;125687.94;4959808;28;20469;-89
2022/07/29 07:10:56;;;;;;;2.40;1.33;;;21.20;99.90;;;-144.05;40.13;125687.94;4961518;29;20052;-90
2022/07/29 07:13:33;;;;;;;9.73;1.90;;;21.10;99.90;;;-144.05;39.43;125687.94;4931632;29;20069;-88
2022/07/29 07:16:22;;;;;;;;;;;;;;;;;;;;;
2022/07/29 07:19:33;;;;;;;3.90;1.58;;;21.80;99.90;;;-144.05;37.84;125687.94;4945260;29;20124;-89
2022/07/29 07:22:20;;;;;;;5.68;2.17;;;22.40;99.90;;;-144.05;36.96;125687.94;4927630;29;20393;-89
2022/07/29 07:24:48;;;;;;;4.95;1.65;;;22.30;99.90;;;-144.05;37.41;125687.94;4942241;29;20083;-87
2022/07/29 07:27:29;;;;;;;5.97;1.80;;;22.10;99.90;;;-144.05;38.38;125687.94;4941980;29;20124;-87
2022/07/29 07:29:55;;;;;;;7.47;2.67;;;22.30;99.90;;;-144.05;37.86;125687.94;4941583;29;20098;-88
2022/07/29 07:33:30;;;;;;;5.50;2.70;;;22.40;99.90;;;-144.05;37.76;125687.94;4932500;29;20018;-89
2022/07/29 07:36:03;;;;;;;11.07;2.38;;;22.30;99.90;;;-144.05;38.17;125687.94;4943936;29;20032;-86
2022/07/29 07:39:22;;;;;;;9.98;2.10;;;21.90;99.90;;;-144.05;38.28;125687.94;4941221;29;20031;-88
2022/07/29 07:42:57;;;;;;;10.43;2.80;;;21.80;99.90;;;-144.05;39.28;125687.94;4878438;29;20041;-87
2022/07/29 07:45:45;;;;;;;5.20;2.03;;;21.60;99.90;;;-144.05;38.84;125687.94;4894971;29;20078;-85
2022/07/29 07:48:24;;;;;;;4.88;1.83;;;21.60;99.90;;;-144.05;38.39;125687.94;4939988;29;20028;-85
2022/07/29 07:51:03;;;;;;;;;;;;;;;;;;;;;
2022/07/29 07:54:04;;;;;;;7.22;2.28;;;22.10;99.90;;;-144.05;36.54;125687.94;4942159;29;20170;-90
2022/07/29 07:56:51;;;;;;;6.22;2.15;;;22.90;99.90;;;-144.05;35.23;125687.94;4928538;28;20015;-89
2022/07/29 08:00:32;;;;;;;5.30;1.80;;;23.30;97.10;;;-144.05;35.54;125687.94;4942898;29;20028;-90
2022/07/29 08:03:04;;;;;;;4.88;1.95;;;23.30;96.40;;;-144.05;35.28;125687.94;4940879;29;20505;-88
2022/07/29 08:25:17;;;;;;;8.10;2.70;;;26.20;82.40;;;-144.05;31.88;125687.94;4961071;28;19973;-91
2022/07/29 08:29:19;;;;;;;12.55;2.95;;;26.10;84.20;;;-144.05;31.64;125687.94;4960995;29;20046;-87
2022/07/29 08:32:28;;;;;;;9.85;3.20;;;25.80;81.70;;;-144.05;33.08;125687.94;4962683;29;20043;-88
2022/07/29 08:40:24;;;;;;;7.35;2.58;;;24.50;83.40;;;-144.05;33.29;125687.94;4961931;29;20035;-90
2022/07/29 08:44:11;;;;;;;11.02;3.05;;;24.00;83.20;;;-144.05;34.11;125687.94;4947057;28;20031;-88
2022/07/29 08:46:58;;;;;;;10.02;3.00;;;23.80;86.20;;;-144.05;34.29;125687.94;4881066;29;20068;-89
2022/07/29 08:51:20;;;;;;;;;;;;;;;;;;;;;
2022/07/29 08:54:59;;;;;;;14.98;2.92;;;24.30;85.00;;;-144.05;33.33;125687.94;4914622;29;20114;-89
2022/07/29 09:02:09;;;;;;;9.65;2.80;;;26.10;89.00;;;-144.05;33.80;125687.94;4898496;29;20081;-89
2022/07/29 09:05:26;;;;;;;7.15;2.60;;;26.00;89.90;;;-144.05;35.21;125687.94;4891893;29;20045;-86
2022/07/29 09:08:07;;;;;;;6.82;3.25;;;25.80;91.50;;;-144.05;35.85;125687.94;4907026;29;20068;-88
2022/07/29 09:22:40;;;;;;;8.48;2.97;;;23.60;96.00;;;-144.05;39.10;125687.94;4936781;29;20095;-87
2022/07/29 09:25:31;;;;;;;6.03;2.97;;;23.20;98.00;;;-144.05;39.96;125687.94;4933184;29;20035;-90
2022/07/29 09:28:14;;;;;;;5.32;2.80;;;22.90;99.90;;;-144.05;40.43;125687.94;4960892;29;20050;-89
2022/07/29 09:31:56;;;;;;;7.75;3.28;;;22.70;99.90;;;-144.05;41.13;125687.94;4961008;29;20078;-86
2022/07/29 09:35:19;;;;;;;7.18;2.72;;;22.50;99.90;;;-144.05;41.83;125687.94;4962649;28;20024;-87
2022/07/29 09:42:37;;;;;;;4.78;2.47;;;22.30;99.90;;;-144.05;43.08;125687.94;4944846;29;20501;-86
2022/07/29 09:45:33;;;;;;;9.90;3.28;;;22.30;99.90;;;-144.05;43.18;125687.94;4956502;28;20036;-88
2022/07/29 09:48:27;;;;;;;5.85;3.05;;;22.20;99.90;;;-144.05;43.36;125687.94;4962632;29;20032;-87
2022/07/29 09:55:26;;;;;;;9.18;3.42;;;22.50;99.90;;;-144.05;43.51;125687.94;4961743;28;20092;-88
2022/07/29 09:57:53;;;;;;;;;;;22.50;99.90;;;-144.05;43.08;125687.94;4945900;29;20055;-88
2022/07/29 10:01:02;;;;;;;8.77;3.88;;;22.70;99.90;;;-144.05;43.25;125687.94;4945718;29;19910;-90
2022/07/29 10:03:55;;;;;;;7.40;3.05;;;22.40;99.90;;;-144.05;43.88;125687.94;4959667;29;20501;-89
2022/07/29 10:16:38;;;;;;;6.57;3.83;;;21.30;99.90;;;-144.05;45.50;125687.94;4962568;28;20416;-90
2022/07/29 10:19:04;;;;;;;7.32;4.15;;;21.20;99.90;;;-144.05;45.78;125687.94;4963329;28;20050;-90
2022/07/29 10:21:30;;;;;;;18.17;5.28;;;21.00;99.90;;;-144.05;45.59;125687.94;4947483;29;20038;-92
2022/07/29 10:23:59;;;;;;;10.35;3.60;;;20.80;99.90;;;-144.05;46.75;125687.94;4963824;29;20081;-90
2022/07/29 10:26:25;;;;;;;7.10;3.53;;;20.60;99.90;;;-144.05;47.51;125687.94;4962507;29;20065;-89
2022/07/29 10:28:51;;;;;;;7.03;3.40;;;20.50;99.90;;;-144.05;48.22;125687.94;4964417;29;20124;-91
2022/07/29 10:31:36;;;;;;;9.35;4.35;;;20.40;99.90;;;-144.05;48.83;125687.94;4976065;28;20054;-90
2022/07/29 10:34:29;;;;;;;10.20;4.05;;;20.30;99.90;;;-144.05;48.66;125687.94;4979731;28;20083;-88
2022/07/29 10:37:52;;;;;;;10.07;3.72;;;20.30;99.90;;;-144.05;48.53;125687.94;4975656;28;20483;-89
2022/07/29 10:41:26;;;;;;;9.10;3.72;;;20.20;99.90;;;-144.05;48.83;125687.94;4960552;29;20456;-87
2022/07/29 10:44:08;;;;;;;6.40;3.30;;;20.20;99.90;;;-144.05;48.97;125687.94;4958934;29;20058;-88
2022/07/29 10:46:40;;;;;;;11.40;3.70;;;20.20;99.90;;;-144.05;49.48;125687.94;4959503;28;20035;-88
2022/07/29 10:49:29;;;;;;;6.55;3.00;;;20.00;99.90;;;-144.05;50.00;125687.94;4958552;29;20110;-87
2022/07/29 10:52:09;;;;;;;7.85;3.40;;;19.90;99.90;;;-144.05;49.98;125687.94;4959606;29;20031;-87
2022/07/29 10:54:35;;;;;;;7.43;3.05;;;19.90;99.90;;;-144.05;49.71;125687.94;4943453;28;20078;-87
2022/07/29 10:57:19;;;;;;;7.25;2.70;;;19.80;99.90;;;-144.05;49.95;125687.94;4960106;29;20521;-88
2022/07/29 11:00:00;;;;;;;3.83;2.67;;;19.70;99.90;;;-144.05;50.04;125687.94;4961189;29;20031;-87
2022/07/29 11:02:34;;;;;;;4.78;2.85;;;19.70;99.90;;;-144.05;49.87;125687.94;4962491;29;20035;-89
2022/07/29 11:05:14;;;;;;;9.70;2.80;;;19.70;99.90;;;-144.05;49.67;125687.94;4961393;29;20454;-89
2022/07/29 11:08:18;;;;;;;5.93;2.63;;;19.70;99.90;;;-144.05;49.53;125687.94;4962248;29;20046;-87
2022/07/29 11:10:44;;;;;;;4.03;2.30;;;19.80;99.90;;;-144.05;48.95;125687.94;4962556;29;20027;-87
2022/07/29 11:13:11;;;;;;;10.65;2.53;;;19.90;99.90;;;-144.05;48.70;125687.94;4946208;29;20061;-87
2022/07/29 11:15:57;;;;;;;5.97;1.80;;;19.90;99.90;;;-144.05;48.87;125687.94;4961682;29;20563;-87
2022/07/29 11:18:23;;;;;;;5.83;2.00;;;20.00;99.90;;;-144.05;48.70;125687.94;4962139;29;20031;-87
2022/07/29 11:20:53;;;;;;;5.95;2.10;;;20.10;99.90;;;-144.05;48.89;125687.94;4961408;29;20035;-88
2022/07/29 11:23:35;;;;;;;4.97;2.42;;;20.00;99.90;;;-144.05;49.13;125687.94;4958340;29;20028;-88
2022/07/29 11:26:21;;;;;;;7.78;2.78;;;20.00;99.90;;;-144.05;49.30;125687.94;4951451;29;20059;-87
2022/07/29 11:29:14;;;;;;;5.38;1.98;;;20.00;99.90;;;-144.05;48.69;125687.94;4966265;29;20061;-89
2022/07/29 11:31:53;;;;;;;5.18;2.40;;;20.10;99.90;;;-144.05;48.98;125687.94;4960329;29;20027;-86
2022/07/29 11:34:32;;;;;;;4.13;2.55;;;20.10;99.90;;;-144.05;48.44;125687.94;4960574;29;20480;-86
2022/07/29 11:37:08;;;;;;;5.43;2.40;;;20.10;99.90;;;-144.05;47.15;125687.94;4960854;29;20041;-88
2022/07/29 11:39:38;;;;;;;7.95;2.45;;;20.20;99.90;;;-144.05;47.25;125687.94;4960236;29;20026;-87
2022/07/29 11:42:21;;;;;;;6.70;2.63;;;20.30;99.90;;;-144.05;47.31;125687.94;4964848;29;20078;-89
2022/07/29 11:45:32;;;;;;;7.07;2.33;;;20.30;99.90;;;-144.05;47.34;125687.94;4963906;28;20031;-88
2022/07/29 11:48:00;;;;;;;6.95;2.70;;;20.30;99.90;;;-144.05;47.39;125687.94;4943744;29;20035;-89
2022/07/29 11:50:37;;;;;;;7.93;2.28;;;20.20;99.90;;;-144.05;47.68;125687.94;4943945;29;20027;-88
2022/07/29 11:53:13;;;;;;;2.60;2.03;;;20.20;99.90;;;-144.05;47.91;125687.94;4945677;29;20031;-90
2022/07/29 11:55:41;;;;;;;;;;;20.10;99.90;;;-144.05;48.49;125687.94;4946070;29;20028;-88
2022/07/29 11:58:08;;;;;;;5.35;2.38;;;20.00;99.90;;;-144.05;48.14;125687.94;4945630;29;19911;-87
2022/07/29 12:00:41;;;;;;;4.15;2.45;;;19.90;99.90;;;-144.05;48.34;125687.94;4959795;29;20027;-87
2022/07/29 12:03:11;;;;;;;3.88;2.03;;;19.90;99.90;;;-144.05;48.33;125687.94;4960796;29;20062;-88
2022/07/29 12:05:46;;;;;;;7.50;2.63;;;19.90;99.90;;;-144.05;48.42;125687.94;4943817;29;20027;-89
2022/07/29 12:08:21;;;;;;;4.95;2.20;;;19.80;99.90;;;-144.05;48.84;125687.94;4959124;28;20023;-87
2022/07/29 12:10:51;;;;;;;8.00;2.90;;;19.80;99.90;;;-144.05;49.23;125687.94;4958955;29;20122;-88
2022/07/29 12:13:21;;;;;;;8.77;2.97;;;19.70;99.90;;;-144.05;49.68;125687.94;4958600;29;20159;-87
2022/07/29 12:16:00;;;;;;;6.43;2.58;;;19.70;99.90;;;-144.05;50.27;125687.94;4942276;29;20043;-87
2022/07/29 12:18:26;;;;;;;4.85;2.38;;;19.60;99.90;;;-144.05;50.50;125687.94;4958717;29;20083;-90
2022/07/29 12:21:06;;;;;;;7.50;2.67;;;19.60;99.90;;;-144.05;50.43;125687.94;4958329;28;20027;-88
2022/07/29 12:23:34;;;;;;;10.02;2.95;;;19.70;99.90;;;-144.05;50.08;125687.94;4958772;29;20496;-89
2022/07/29 12:26:07;;;;;;;5.90;2.88;;;19.70;99.90;;;-144.05;50.64;125687.94;4959833;28;20054;-87
2022/07/29 12:28:38;;;;;;;7.35;2.55;;;19.60;99.90;;;-144.05;50.73;125687.94;4943224;29;20031;-86
2022/07/29 12:31:05;;;;;;;9.13;3.05;;;19.70;99.90;;;-144.05;50.91;125687.94;4942662;29;20484;-89
2022/07/29 12:33:35;;;;;;;7.43;2.60;;;19.70;99.90;;;-144.05;50.91;125687.94;4959078;29;20135;-88
2022/07/29 12:36:03;;;;;;;5.75;3.20;;;19.80;99.90;;;-144.05;50.18;125687.94;4943203;29;20051;-89
2022/07/29 12:38:30;;;;;;;5.63;2.50;;;20.10;99.90;;;-144.05;49.61;125687.94;4943207;29;20031;-88
2022/07/29 12:40:57;;;;;;;10.80;3.10;;;20.50;99.90;;;-144.05;48.77;125687.94;4942693;28;20035;-87
2022/07/29 12:43:25;;;;;;;8.35;3.20;;;21.00;99.90;;;-144.05;47.16;125687.94;4957101;29;20027;-88
2022/07/29 12:45:57;;;;;;;6.60;3.08;;;21.70;99.90;;;-144.05;45.39;125687.94;4941724;29;20031;-87
2022/07/29 12:48:42;;;;;;;6.53;2.95;;;22.50;99.90;;;-144.05;44.20;125687.94;4958090;29;20031;-87
2022/07/29 12:51:12;;;;;;;6.28;2.70;;;23.10;99.90;;;-144.05;43.25;125687.94;4957533;29;20028;-90
2022/07/29 12:53:38;;;;;;;5.85;2.83;;;23.10;99.90;;;-144.05;43.12;125687.94;4957162;29;20079;-87
2022/07/29 12:56:14;;;;;;;6.57;2.95;;;22.90;99.90;;;-144.05;43.73;125687.94;4957210;28;20047;-90
2022/07/29 12:58:42;;;;;;;5.13;2.50;;;22.70;99.90;;;-144.05;44.58;125687.94;4941910;29;20031;-86
2022/07/29 13:01:36;;;;;;;6.60;3.35;;;22.50;99.90;;;-144.05;44.97;125687.94;4957703;28;20039;-89
2022/07/29 13:04:04;;;;;;;9.80;3.13;;;22.30;99.90;;;-144.05;45.30;125687.94;4941751;29;20039;-87